PWSweather.com
Personal Weather Stations
Station Observations
KPAAUBUR15
Lake Wynonah, Auburn, PA 17922

Lake WynonahAuburn, PA 17922

Lat: 40.582723, Lon: -76.193106

Elevation: 724

Station Type: Davis Vantage Pro2

http://WynonahWeather.com

Latest ConditionsUpdated 10:20:01 AM EDT Monday, Sep 24, 2018
Currently Today's Max Today's Min Today's Average
Temperature 58.7°F14.8°C 58.8°F14.9°C 56.4°F13.6°C 57.3°F14.1°C
Dew Point 55.8°F13.2°C 58.6°F14.8°C 55.3°F12.9°C 56.4°F13.6°C
Winds Calm Calm Calm -Calm - - Calm Calm
Wind Gusts -- -- - -
Humidity 90% 99% 90% 96%
Pressure 30.41 in1029.8 mb 30.41 in1029.8 mb 30.28 in1025.4 mb -
Hour Temp Dew Point Humidity Winds Wind Gusts Pressure Precip Precip Rate Daily Precip Total
10:20 AM 58.7°F14.8°C 55.8°F13.2°C 90% Calm Calm -- 30.41 in1029.8 mb - 0.00 in0.0 mm 0.00 in0.0 mm
10:15 AM 58.6°F14.8°C 56.0°F13.3°C 91% Calm Calm -- 30.41 in1029.8 mb - 0.00 in0.0 mm 0.00 in0.0 mm
10:10 AM 58.4°F14.7°C 56.1°F13.4°C 92% Calm Calm -- 30.41 in1029.8 mb - 0.00 in0.0 mm 0.00 in0.0 mm
10:05 AM 58.0°F14.4°C 55.7°F13.2°C 92% Calm Calm -- 30.41 in1029.8 mb - 0.00 in0.0 mm 0.00 in0.0 mm
10:00 AM 57.9°F14.4°C 55.6°F13.1°C 92% Calm Calm -- 30.41 in1029.8 mb - 0.00 in0.0 mm 0.00 in0.0 mm
09:55 AM 57.8°F14.3°C 55.5°F13.1°C 92% Calm Calm -- 30.41 in1029.8 mb - 0.00 in0.0 mm 0.00 in0.0 mm
09:50 AM 57.8°F14.3°C 55.5°F13.1°C 92% Calm Calm -- 30.41 in1029.8 mb - 0.00 in0.0 mm 0.00 in0.0 mm
09:45 AM 57.8°F14.3°C 55.8°F13.2°C 93% Calm Calm -- 30.40 in1029.5 mb - 0.00 in0.0 mm 0.00 in0.0 mm
09:40 AM 57.8°F14.3°C 55.8°F13.2°C 93% Calm Calm -- 30.40 in1029.5 mb - 0.00 in0.0 mm 0.00 in0.0 mm
09:35 AM 57.7°F14.3°C 55.7°F13.2°C 93% Calm Calm -- 30.40 in1029.5 mb - 0.00 in0.0 mm 0.00 in0.0 mm
09:30 AM 57.8°F14.3°C 56.1°F13.4°C 94% Calm Calm -- 30.39 in1029.1 mb - 0.00 in0.0 mm 0.00 in0.0 mm
09:25 AM 57.7°F14.3°C 56.0°F13.3°C 94% Calm Calm -- 30.39 in1029.1 mb - 0.00 in0.0 mm 0.00 in0.0 mm
09:20 AM 57.5°F14.2°C 55.8°F13.2°C 94% Calm Calm -- 30.39 in1029.1 mb - 0.00 in0.0 mm 0.00 in0.0 mm
09:15 AM 57.3°F14.1°C 55.6°F13.1°C 94% Calm Calm -- 30.39 in1029.1 mb - 0.00 in0.0 mm 0.00 in0.0 mm
09:10 AM 57.2°F14.0°C 55.8°F13.2°C 95% Calm Calm -- 30.39 in1029.1 mb - 0.00 in0.0 mm 0.00 in0.0 mm
09:05 AM 57.1°F13.9°C 55.7°F13.2°C 95% Calm Calm -- 30.38 in1028.8 mb - 0.00 in0.0 mm 0.00 in0.0 mm
09:00 AM 57.1°F13.9°C 55.7°F13.2°C 95% Calm Calm -- 30.38 in1028.8 mb - 0.00 in0.0 mm 0.00 in0.0 mm
08:55 AM 57.1°F13.9°C 56.0°F13.3°C 96% Calm Calm -- 30.38 in1028.8 mb - 0.00 in0.0 mm 0.00 in0.0 mm
08:50 AM 56.9°F13.8°C 55.8°F13.2°C 96% Calm Calm -- 30.38 in1028.8 mb - 0.00 in0.0 mm 0.00 in0.0 mm
08:45 AM 56.8°F13.8°C 55.7°F13.2°C 96% Calm Calm -- 30.38 in1028.8 mb - 0.00 in0.0 mm 0.00 in0.0 mm
08:40 AM 56.7°F13.7°C 55.6°F13.1°C 96% Calm Calm -- 30.38 in1028.8 mb - 0.00 in0.0 mm 0.00 in0.0 mm
08:35 AM 56.7°F13.7°C 55.6°F13.1°C 96% Calm Calm -- 30.38 in1028.8 mb - 0.00 in0.0 mm 0.00 in0.0 mm
08:30 AM 56.7°F13.7°C 55.6°F13.1°C 96% Calm Calm -- 30.38 in1028.8 mb - 0.00 in0.0 mm 0.00 in0.0 mm
08:25 AM 56.7°F13.7°C 55.6°F13.1°C 96% Calm Calm -- 30.37 in1028.4 mb - 0.00 in0.0 mm 0.00 in0.0 mm
08:20 AM 56.7°F13.7°C 55.6°F13.1°C 96% Calm Calm -- 30.37 in1028.4 mb - 0.00 in0.0 mm 0.00 in0.0 mm
08:15 AM 56.7°F13.7°C 55.6°F13.1°C 96% Calm Calm -- 30.37 in1028.4 mb - 0.00 in0.0 mm 0.00 in0.0 mm
08:10 AM 56.7°F13.7°C 55.6°F13.1°C 96% Calm Calm -- 30.37 in1028.4 mb - 0.00 in0.0 mm 0.00 in0.0 mm
08:05 AM 56.7°F13.7°C 55.6°F13.1°C 96% Calm Calm -- 30.37 in1028.4 mb - 0.00 in0.0 mm 0.00 in0.0 mm
08:00 AM 56.8°F13.8°C 55.7°F13.2°C 96% Calm Calm -- 30.37 in1028.4 mb - 0.00 in0.0 mm 0.00 in0.0 mm
07:55 AM 56.8°F13.8°C 55.7°F13.2°C 96% Calm Calm -- 30.37 in1028.4 mb - 0.00 in0.0 mm 0.00 in0.0 mm
07:50 AM 56.8°F13.8°C 56.0°F13.3°C 97% Calm Calm -- 30.37 in1028.4 mb - 0.00 in0.0 mm 0.00 in0.0 mm
07:45 AM 56.8°F13.8°C 55.7°F13.2°C 96% Calm Calm -- 30.36 in1028.1 mb - 0.00 in0.0 mm 0.00 in0.0 mm
07:40 AM 56.8°F13.8°C 55.7°F13.2°C 96% Calm Calm -- 30.36 in1028.1 mb - 0.00 in0.0 mm 0.00 in0.0 mm
07:35 AM 56.8°F13.8°C 55.7°F13.2°C 96% Calm Calm -- 30.36 in1028.1 mb - 0.00 in0.0 mm 0.00 in0.0 mm
07:30 AM 56.8°F13.8°C 56.0°F13.3°C 97% Calm Calm -- 30.36 in1028.1 mb - 0.00 in0.0 mm 0.00 in0.0 mm
07:25 AM 56.8°F13.8°C 56.0°F13.3°C 97% Calm Calm -- 30.36 in1028.1 mb - 0.00 in0.0 mm 0.00 in0.0 mm
07:20 AM 56.7°F13.7°C 55.9°F13.3°C 97% Calm Calm -- 30.36 in1028.1 mb - 0.00 in0.0 mm 0.00 in0.0 mm
07:15 AM 56.5°F13.6°C 55.4°F13.0°C 96% Calm Calm -- 30.35 in1027.8 mb - 0.00 in0.0 mm 0.00 in0.0 mm
07:10 AM 56.4°F13.6°C 55.3°F12.9°C 96% Calm Calm -- 30.35 in1027.8 mb - 0.00 in0.0 mm 0.00 in0.0 mm
07:05 AM 56.5°F13.6°C 55.4°F13.0°C 96% Calm Calm -- 30.35 in1027.8 mb - 0.00 in0.0 mm 0.00 in0.0 mm
07:00 AM 56.5°F13.6°C 55.4°F13.0°C 96% Calm Calm -- 30.34 in1027.4 mb - 0.00 in0.0 mm 0.00 in0.0 mm
06:55 AM 56.5°F13.6°C 55.4°F13.0°C 96% Calm Calm -- 30.34 in1027.4 mb - 0.00 in0.0 mm 0.00 in0.0 mm
06:50 AM 56.6°F13.7°C 55.5°F13.1°C 96% Calm Calm -- 30.34 in1027.4 mb - 0.00 in0.0 mm 0.00 in0.0 mm
06:45 AM 56.4°F13.6°C 55.3°F12.9°C 96% Calm Calm -- 30.34 in1027.4 mb - 0.00 in0.0 mm 0.00 in0.0 mm
06:40 AM 56.4°F13.6°C 55.3°F12.9°C 96% Calm Calm -- 30.34 in1027.4 mb - 0.00 in0.0 mm 0.00 in0.0 mm
06:35 AM 56.4°F13.6°C 55.3°F12.9°C 96% Calm Calm -- 30.34 in1027.4 mb - 0.00 in0.0 mm 0.00 in0.0 mm
06:30 AM 56.4°F13.6°C 55.3°F12.9°C 96% Calm Calm -- 30.34 in1027.4 mb - 0.00 in0.0 mm 0.00 in0.0 mm
06:25 AM 56.4°F13.6°C 55.3°F12.9°C 96% Calm Calm -- 30.34 in1027.4 mb - 0.00 in0.0 mm 0.00 in0.0 mm
06:20 AM 56.4°F13.6°C 55.3°F12.9°C 96% Calm Calm -- 30.33 in1027.1 mb - 0.00 in0.0 mm 0.00 in0.0 mm
06:15 AM 56.5°F13.6°C 55.4°F13.0°C 96% Calm Calm -- 30.33 in1027.1 mb - 0.00 in0.0 mm 0.00 in0.0 mm
06:10 AM 56.6°F13.7°C 55.5°F13.1°C 96% Calm Calm -- 30.33 in1027.1 mb - 0.00 in0.0 mm 0.00 in0.0 mm
06:05 AM 56.7°F13.7°C 55.6°F13.1°C 96% Calm Calm -- 30.32 in1026.8 mb - 0.00 in0.0 mm 0.00 in0.0 mm
06:00 AM 56.7°F13.7°C 55.6°F13.1°C 96% Calm Calm -- 30.32 in1026.8 mb - 0.00 in0.0 mm 0.00 in0.0 mm
05:55 AM 56.7°F13.7°C 55.9°F13.3°C 97% Calm Calm -- 30.32 in1026.8 mb - 0.00 in0.0 mm 0.00 in0.0 mm
05:50 AM 56.5°F13.6°C 55.7°F13.2°C 97% Calm Calm -- 30.32 in1026.8 mb - 0.00 in0.0 mm 0.00 in0.0 mm
05:45 AM 56.4°F13.6°C 55.6°F13.1°C 97% Calm Calm -- 30.32 in1026.8 mb - 0.00 in0.0 mm 0.00 in0.0 mm
05:40 AM 56.4°F13.6°C 55.6°F13.1°C 97% Calm Calm -- 30.32 in1026.8 mb - 0.00 in0.0 mm 0.00 in0.0 mm
05:35 AM 56.4°F13.6°C 55.6°F13.1°C 97% Calm Calm -- 30.32 in1026.8 mb - 0.00 in0.0 mm 0.00 in0.0 mm
05:30 AM 56.4°F13.6°C 55.6°F13.1°C 97% Calm Calm -- 30.32 in1026.8 mb - 0.00 in0.0 mm 0.00 in0.0 mm
05:25 AM 56.4°F13.6°C 55.6°F13.1°C 97% Calm Calm -- 30.31 in1026.4 mb - 0.00 in0.0 mm 0.00 in0.0 mm
05:20 AM 56.5°F13.6°C 55.7°F13.2°C 97% Calm Calm -- 30.31 in1026.4 mb - 0.00 in0.0 mm 0.00 in0.0 mm
05:15 AM 56.4°F13.6°C 55.6°F13.1°C 97% Calm Calm -- 30.31 in1026.4 mb - 0.00 in0.0 mm 0.00 in0.0 mm
05:10 AM 56.5°F13.6°C 55.7°F13.2°C 97% Calm Calm -- 30.31 in1026.4 mb - 0.00 in0.0 mm 0.00 in0.0 mm
05:05 AM 56.5°F13.6°C 55.7°F13.2°C 97% Calm Calm -- 30.31 in1026.4 mb - 0.00 in0.0 mm 0.00 in0.0 mm
05:00 AM 56.5°F13.6°C 55.7°F13.2°C 97% Calm Calm -- 30.30 in1026.1 mb - 0.00 in0.0 mm 0.00 in0.0 mm
04:55 AM 56.6°F13.7°C 55.8°F13.2°C 97% Calm Calm -- 30.30 in1026.1 mb - 0.00 in0.0 mm 0.00 in0.0 mm
04:50 AM 56.6°F13.7°C 55.8°F13.2°C 97% Calm Calm -- 30.30 in1026.1 mb - 0.00 in0.0 mm 0.00 in0.0 mm
04:45 AM 56.7°F13.7°C 55.9°F13.3°C 97% Calm Calm -- 30.31 in1026.4 mb - 0.00 in0.0 mm 0.00 in0.0 mm
04:40 AM 56.7°F13.7°C 55.8°F13.2°C 97% Calm Calm -- 30.31 in1026.4 mb - 0.00 in0.0 mm 0.00 in0.0 mm
04:35 AM 56.7°F13.7°C 55.9°F13.3°C 97% Calm Calm -- 30.30 in1026.1 mb - 0.00 in0.0 mm 0.00 in0.0 mm
04:30 AM 56.8°F13.8°C 56.0°F13.3°C 97% Calm Calm -- 30.30 in1026.1 mb - 0.00 in0.0 mm 0.00 in0.0 mm
04:25 AM 56.8°F13.8°C 56.0°F13.3°C 97% Calm Calm -- 30.30 in1026.1 mb - 0.00 in0.0 mm 0.00 in0.0 mm
04:20 AM 56.8°F13.8°C 56.0°F13.3°C 97% Calm Calm -- 30.30 in1026.1 mb - 0.00 in0.0 mm 0.00 in0.0 mm
04:15 AM 56.9°F13.8°C 56.1°F13.4°C 97% Calm Calm -- 30.30 in1026.1 mb - 0.00 in0.0 mm 0.00 in0.0 mm
04:10 AM 57.2°F14.0°C 56.3°F13.5°C 97% Calm Calm -- 30.30 in1026.1 mb - 0.00 in0.0 mm 0.00 in0.0 mm
04:05 AM 57.3°F14.1°C 56.5°F13.6°C 97% Calm Calm -- 30.29 in1025.7 mb - 0.00 in0.0 mm 0.00 in0.0 mm
04:00 AM 57.5°F14.2°C 56.7°F13.7°C 97% Calm Calm -- 30.29 in1025.7 mb - 0.00 in0.0 mm 0.00 in0.0 mm
03:55 AM 57.5°F14.2°C 56.7°F13.7°C 97% Calm Calm -- 30.29 in1025.7 mb - 0.00 in0.0 mm 0.00 in0.0 mm
03:50 AM 57.4°F14.1°C 56.6°F13.7°C 97% Calm Calm -- 30.29 in1025.7 mb - 0.00 in0.0 mm 0.00 in0.0 mm
03:45 AM 57.4°F14.1°C 56.6°F13.7°C 97% Calm Calm -- 30.29 in1025.7 mb - 0.00 in0.0 mm 0.00 in0.0 mm
03:40 AM 57.4°F14.1°C 56.6°F13.7°C 97% Calm Calm -- 30.29 in1025.7 mb - 0.00 in0.0 mm 0.00 in0.0 mm
03:35 AM 57.5°F14.2°C 56.7°F13.7°C 97% Calm Calm -- 30.29 in1025.7 mb - 0.00 in0.0 mm 0.00 in0.0 mm
03:30 AM 57.5°F14.2°C 56.7°F13.7°C 97% Calm Calm -- 30.30 in1026.1 mb - 0.00 in0.0 mm 0.00 in0.0 mm
03:25 AM 57.4°F14.1°C 56.6°F13.7°C 97% Calm Calm -- 30.30 in1026.1 mb - 0.00 in0.0 mm 0.00 in0.0 mm
03:20 AM 57.5°F14.2°C 56.7°F13.7°C 97% Calm Calm -- 30.29 in1025.7 mb - 0.00 in0.0 mm 0.00 in0.0 mm
03:15 AM 57.6°F14.2°C 56.8°F13.8°C 97% Calm Calm -- 30.29 in1025.7 mb - 0.00 in0.0 mm 0.00 in0.0 mm
03:10 AM 57.7°F14.3°C 56.9°F13.8°C 97% Calm Calm -- 30.29 in1025.7 mb - 0.00 in0.0 mm 0.00 in0.0 mm
03:05 AM 57.8°F14.3°C 57.0°F13.9°C 97% Calm Calm -- 30.29 in1025.7 mb - 0.00 in0.0 mm 0.00 in0.0 mm
03:00 AM 57.8°F14.3°C 57.2°F14.0°C 98% Calm Calm -- 30.29 in1025.7 mb - 0.00 in0.0 mm 0.00 in0.0 mm
02:55 AM 57.7°F14.3°C 57.2°F14.0°C 98% Calm Calm -- 30.29 in1025.7 mb - 0.00 in0.0 mm 0.00 in0.0 mm
02:50 AM 57.8°F14.3°C 57.2°F14.0°C 98% Calm Calm -- 30.29 in1025.7 mb - 0.00 in0.0 mm 0.00 in0.0 mm
02:45 AM 57.8°F14.3°C 57.2°F14.0°C 98% Calm Calm -- 30.29 in1025.7 mb - 0.00 in0.0 mm 0.00 in0.0 mm
02:40 AM 57.8°F14.3°C 57.2°F14.0°C 98% Calm Calm -- 30.29 in1025.7 mb - 0.00 in0.0 mm 0.00 in0.0 mm
02:35 AM 57.9°F14.4°C 57.3°F14.1°C 98% Calm Calm -- 30.29 in1025.7 mb - 0.00 in0.0 mm 0.00 in0.0 mm
02:30 AM 58.0°F14.4°C 57.5°F14.2°C 98% Calm Calm -- 30.29 in1025.7 mb - 0.00 in0.0 mm 0.00 in0.0 mm
02:25 AM 57.8°F14.3°C 57.2°F14.0°C 98% Calm Calm -- 30.29 in1025.7 mb - 0.00 in0.0 mm 0.00 in0.0 mm
02:20 AM 57.8°F14.3°C 57.2°F14.0°C 98% Calm Calm -- 30.29 in1025.7 mb - 0.00 in0.0 mm 0.00 in0.0 mm
02:15 AM 57.8°F14.3°C 57.2°F14.0°C 98% Calm Calm -- 30.29 in1025.7 mb - 0.00 in0.0 mm 0.00 in0.0 mm
02:10 AM 57.8°F14.3°C 57.2°F14.0°C 98% Calm Calm -- 30.29 in1025.7 mb - 0.00 in0.0 mm 0.00 in0.0 mm
02:05 AM 57.8°F14.3°C 57.2°F14.0°C 98% Calm Calm -- 30.29 in1025.7 mb - 0.00 in0.0 mm 0.00 in0.0 mm
02:00 AM 57.9°F14.4°C 57.4°F14.1°C 98% Calm Calm -- 30.29 in1025.7 mb - 0.00 in0.0 mm 0.00 in0.0 mm
01:55 AM 57.9°F14.4°C 57.3°F14.1°C 98% Calm Calm -- 30.29 in1025.7 mb - 0.00 in0.0 mm 0.00 in0.0 mm
01:50 AM 58.0°F14.4°C 57.2°F14.0°C 97% Calm Calm -- 30.28 in1025.4 mb - 0.00 in0.0 mm 0.00 in0.0 mm
01:45 AM 58.0°F14.4°C 57.2°F14.0°C 97% Calm Calm -- 30.29 in1025.7 mb - 0.00 in0.0 mm 0.00 in0.0 mm
01:40 AM 58.1°F14.5°C 57.3°F14.1°C 97% Calm Calm -- 30.29 in1025.7 mb - 0.00 in0.0 mm 0.00 in0.0 mm
01:35 AM 58.1°F14.5°C 57.3°F14.1°C 97% Calm Calm -- 30.29 in1025.7 mb - 0.00 in0.0 mm 0.00 in0.0 mm
01:30 AM 58.2°F14.6°C 57.4°F14.1°C 97% Calm Calm -- 30.29 in1025.7 mb - 0.00 in0.0 mm 0.00 in0.0 mm
01:25 AM 58.4°F14.7°C 57.8°F14.3°C 98% Calm Calm -- 30.29 in1025.7 mb - 0.00 in0.0 mm 0.00 in0.0 mm
01:20 AM 58.4°F14.7°C 57.8°F14.3°C 98% Calm Calm -- 30.29 in1025.7 mb - 0.00 in0.0 mm 0.00 in0.0 mm
01:15 AM 58.3°F14.6°C 57.7°F14.3°C 98% Calm Calm -- 30.29 in1025.7 mb - 0.00 in0.0 mm 0.00 in0.0 mm
01:10 AM 58.4°F14.7°C 57.8°F14.3°C 98% Calm Calm -- 30.28 in1025.4 mb - 0.00 in0.0 mm 0.00 in0.0 mm
01:05 AM 58.6°F14.8°C 58.0°F14.4°C 98% Calm Calm -- 30.28 in1025.4 mb - 0.00 in0.0 mm 0.00 in0.0 mm
01:00 AM 58.5°F14.7°C 57.9°F14.4°C 98% Calm Calm -- 30.29 in1025.7 mb - 0.00 in0.0 mm 0.00 in0.0 mm
12:55 AM 58.3°F14.6°C 57.7°F14.3°C 98% Calm Calm -- 30.29 in1025.7 mb - 0.00 in0.0 mm 0.00 in0.0 mm
12:50 AM 58.3°F14.6°C 57.7°F14.3°C 98% Calm Calm -- 30.28 in1025.4 mb - 0.00 in0.0 mm 0.00 in0.0 mm
12:45 AM 58.4°F14.7°C 57.8°F14.3°C 98% Calm Calm -- 30.28 in1025.4 mb - 0.00 in0.0 mm 0.00 in0.0 mm
12:40 AM 58.4°F14.7°C 57.8°F14.3°C 98% Calm Calm -- 30.28 in1025.4 mb - 0.00 in0.0 mm 0.00 in0.0 mm
12:35 AM 58.3°F14.6°C 57.7°F14.3°C 98% Calm Calm -- 30.28 in1025.4 mb - 0.00 in0.0 mm 0.00 in0.0 mm
12:30 AM 58.3°F14.6°C 57.8°F14.3°C 98% Calm Calm -- 30.28 in1025.4 mb - 0.00 in0.0 mm 0.00 in0.0 mm
12:25 AM 58.4°F14.7°C 57.8°F14.3°C 98% Calm Calm -- 30.28 in1025.4 mb - 0.00 in0.0 mm 0.00 in0.0 mm
12:20 AM 58.4°F14.7°C 57.8°F14.3°C 98% Calm Calm -- 30.28 in1025.4 mb - 0.00 in0.0 mm 0.00 in0.0 mm
12:15 AM 58.4°F14.7°C 57.8°F14.3°C 98% Calm Calm -- 30.28 in1025.4 mb - 0.00 in0.0 mm 0.00 in0.0 mm
12:10 AM 58.6°F14.8°C 58.3°F14.6°C 99% Calm Calm -- 30.28 in1025.4 mb - 0.00 in0.0 mm 0.00 in0.0 mm
12:05 AM 58.7°F14.8°C 58.4°F14.7°C 99% Calm Calm -- 30.28 in1025.4 mb - 0.00 in0.0 mm 0.00 in0.0 mm
12:00 AM 58.8°F14.9°C 58.6°F14.8°C 99% Calm Calm -- 30.28 in1025.4 mb - 0.00 in0.0 mm 0.00 in0.0 mm